createdAt,value
2019-03-23T00:04:02.927Z,102131.47
2019-03-23T00:09:06.714Z,102127.26
2019-03-23T00:14:10.673Z,102126.13
2019-03-23T00:19:13.849Z,102138.14
2019-03-23T00:24:17.148Z,102166.19
2019-03-23T00:29:21.166Z,102184.34
2019-03-23T00:34:25.398Z,102182.68
2019-03-23T00:39:29.443Z,102181.20
2019-03-23T00:44:32.507Z,102175.98
2019-03-23T00:49:36.308Z,102176.16
2019-03-23T00:54:40.478Z,102178.63
2019-03-23T00:59:44.210Z,102183.21
2019-03-23T01:04:47.682Z,102180.78
2019-03-23T01:09:51.265Z,102182.21
2019-03-23T01:14:54.997Z,102175.36
2019-03-23T01:19:58.868Z,102167.02
2019-03-23T01:25:02.983Z,102168.52
2019-03-23T01:30:08.256Z,102169.03
2019-03-23T01:35:12.239Z,102167.02
2019-03-23T01:40:16.016Z,102160.69
2019-03-23T01:45:19.824Z,102162.78
2019-03-23T01:50:23.770Z,102164.05
2019-03-23T01:55:27.252Z,102175.05
2019-03-23T02:00:31.094Z,102188.44
2019-03-23T02:05:36.656Z,102169.03
2019-03-23T02:10:41.870Z,102176.14
2019-03-23T02:15:45.837Z,102160.76
2019-03-23T02:20:49.252Z,102156.99
2019-03-23T02:25:53.000Z,102155.62
2019-03-23T02:30:57.208Z,102160.41
2019-03-23T02:36:00.989Z,102171.33
2019-03-23T02:41:05.136Z,102176.29
2019-03-23T02:46:08.595Z,102189.27
2019-03-23T02:51:12.409Z,102192.70
2019-03-23T02:56:16.306Z,102194.42
2019-03-23T03:01:20.132Z,102183.83
2019-03-23T03:06:23.551Z,102170.11
2019-03-23T03:11:27.386Z,102171.73
2019-03-23T03:16:30.755Z,102181.05
2019-03-23T03:21:34.200Z,102184.71
2019-03-23T03:26:37.687Z,102184.80
2019-03-23T03:31:41.471Z,102178.60
2019-03-23T03:36:44.527Z,102179.20
2019-03-23T03:41:48.043Z,102179.94
2019-03-23T03:46:51.815Z,102187.04
2019-03-23T03:51:55.221Z,102195.16
2019-03-23T03:56:59.461Z,102191.73
2019-03-23T04:02:03.764Z,102196.77
2019-03-23T04:07:06.996Z,102203.69
2019-03-23T04:12:10.835Z,102199.59
2019-03-23T04:17:14.132Z,102200.91
2019-03-23T04:22:18.163Z,102205.61
2019-03-23T04:27:21.591Z,102207.47
2019-03-23T04:32:24.668Z,102207.63
2019-03-23T04:37:28.116Z,102213.41
2019-03-23T04:42:31.605Z,102212.05
2019-03-23T04:47:35.051Z,102216.97
2019-03-23T04:52:39.041Z,102216.31
2019-03-23T04:57:42.485Z,102217.41
2019-03-23T05:02:46.624Z,102213.73
2019-03-23T05:07:49.631Z,102220.09
2019-03-23T05:12:53.470Z,102221.38
2019-03-23T05:17:57.559Z,102219.72
2019-03-23T05:23:01.094Z,102212.56
2019-03-23T05:28:04.509Z,102228.52
2019-03-23T05:33:08.355Z,102230.69
2019-03-23T05:38:11.839Z,102232.90
2019-03-23T05:43:16.085Z,102232.08
2019-03-23T05:48:18.763Z,102236.26
2019-03-23T05:53:22.624Z,102256.13
2019-03-23T05:58:27.868Z,102257.64
2019-03-23T06:03:30.975Z,102257.22
2019-03-23T06:08:35.091Z,102276.47
2019-03-23T06:13:39.273Z,102276.66
2019-03-23T06:18:43.472Z,102286.39
2019-03-23T06:23:47.254Z,102287.58
2019-03-23T06:28:51.087Z,102290.50
2019-03-23T06:33:54.547Z,102288.56
2019-03-23T06:39:05.403Z,102284.41
2019-03-23T06:44:05.819Z,102293.06
2019-03-23T06:49:09.599Z,102288.02
2019-03-23T06:54:13.414Z,102288.58
2019-03-23T06:59:19.905Z,102277.34
2019-03-23T07:04:26.729Z,102279.69
2019-03-23T07:09:34.160Z,102282.58
2019-03-23T07:14:42.693Z,102275.04
2019-03-23T07:19:46.564Z,102278.86
2019-03-23T07:24:50.001Z,102274.98
2019-03-23T07:29:53.809Z,102285.05
2019-03-23T07:34:58.042Z,102288.56
2019-03-23T07:40:01.141Z,102296.27
2019-03-23T07:45:06.152Z,102300.66
2019-03-23T07:50:09.723Z,102306.48
2019-03-23T07:55:14.266Z,102306.50
2019-03-23T08:00:18.525Z,102312.95
2019-03-23T08:05:22.294Z,102303.28
2019-03-23T08:10:30.947Z,102301.11
2019-03-23T08:15:34.437Z,102302.13
2019-03-23T08:20:37.685Z,102311.23
2019-03-23T08:25:41.219Z,102325.58
2019-03-23T08:30:45.028Z,102330.20
2019-03-23T08:35:48.512Z,102343.32
2019-03-23T08:40:52.382Z,102345.96
2019-03-23T08:45:55.843Z,102347.43
2019-03-23T08:50:59.717Z,102340.44
2019-03-23T08:56:03.591Z,102336.05
2019-03-23T09:01:06.600Z,102343.45
2019-03-23T09:06:09.433Z,102330.91
2019-03-23T09:11:20.506Z,102332.45
2019-03-23T09:16:18.613Z,102344.68
2019-03-23T09:21:22.103Z,102321.36
2019-03-23T09:26:25.971Z,102360.17
2019-03-23T09:31:29.739Z,102352.16
2019-03-23T09:36:34.109Z,102338.13
2019-03-23T09:41:37.970Z,102354.55
2019-03-23T09:46:41.781Z,102360.09
2019-03-23T09:51:45.909Z,102356.70
2019-03-23T09:56:50.115Z,102360.23
2019-03-23T10:01:54.032Z,102382.37
2019-03-23T10:06:57.554Z,102382.92
2019-03-23T10:12:01.077Z,102371.81
2019-03-23T10:17:05.244Z,102370.11
2019-03-23T10:22:09.016Z,102376.89
2019-03-23T10:27:13.115Z,102390.11
2019-03-23T10:32:17.330Z,102400.28
2019-03-23T10:37:21.491Z,102393.77
2019-03-23T10:42:25.501Z,102389.41
2019-03-23T10:47:29.716Z,102390.56
2019-03-23T10:52:33.968Z,102396.26
2019-03-23T10:57:37.803Z,102404.41
2019-03-23T11:02:41.551Z,102421.68
2019-03-23T11:07:44.932Z,102419.05
2019-03-23T11:12:49.099Z,102412.39
2019-03-23T11:17:53.053Z,102411.61
2019-03-23T11:22:56.542Z,102414.89
2019-03-23T11:28:00.721Z,102426.27
2019-03-23T11:33:05.066Z,102409.76
2019-03-23T11:38:09.011Z,102413.89
2019-03-23T11:43:12.934Z,102415.79
2019-03-23T11:48:16.968Z,102433.97
2019-03-23T11:53:20.770Z,102448.36
2019-03-23T11:58:30.536Z,102444.67
2019-03-23T12:03:35.997Z,102440.92
2019-03-23T12:08:39.910Z,102449.21
2019-03-23T12:13:44.167Z,102448.81
2019-03-23T12:18:47.684Z,102444.73
2019-03-23T12:23:51.852Z,102447.97
2019-03-23T12:28:57.796Z,102450.75
2019-03-23T12:34:01.407Z,102457.74
2019-03-23T12:39:05.923Z,102460.52
2019-03-23T12:44:10.397Z,102459.56
2019-03-23T12:49:14.168Z,102463.47
2019-03-23T12:54:18.418Z,102460.88
2019-03-23T12:59:22.471Z,102460.21
2019-03-23T13:04:28.650Z,102461.72
2019-03-23T13:09:32.937Z,102453.95
2019-03-23T13:14:37.226Z,102461.33
2019-03-23T13:19:40.974Z,102458.89
2019-03-23T13:24:44.072Z,102467.69
2019-03-23T13:29:47.883Z,102469.16
2019-03-23T13:34:50.960Z,102451.13
2019-03-23T13:39:54.503Z,102454.98
2019-03-23T13:44:58.536Z,102472.66
2019-03-23T13:50:02.306Z,102463.45
2019-03-23T13:55:06.900Z,102471.38
2019-03-23T14:00:10.979Z,102457.33
2019-03-23T14:05:16.278Z,102473.19
2019-03-23T14:10:19.911Z,102467.58
2019-03-23T14:15:23.725Z,102473.08
2019-03-23T14:20:27.549Z,102465.48
2019-03-23T14:25:31.389Z,102471.04
2019-03-23T14:30:34.883Z,102446.48
2019-03-23T14:35:38.414Z,102451.55
2019-03-23T14:40:42.252Z,102456.91
2019-03-23T14:45:45.324Z,102470.13
2019-03-23T14:50:49.170Z,102474.98
2019-03-23T14:55:53.111Z,102483.22
2019-03-23T15:00:56.928Z,102485.92
2019-03-23T15:06:00.343Z,102480.95
2019-03-23T15:11:03.829Z,102500.31
2019-03-23T15:16:07.297Z,102490.61
2019-03-23T15:21:10.848Z,102500.28
2019-03-23T15:26:13.894Z,102506.00
2019-03-23T15:31:18.151Z,102509.04
2019-03-23T15:36:22.372Z,102517.30
2019-03-23T15:41:26.162Z,102516.03
2019-03-23T15:46:29.602Z,102525.95
2019-03-23T15:51:33.757Z,102530.59
2019-03-23T15:56:37.870Z,102547.39
2019-03-23T16:01:41.401Z,102557.83
2019-03-23T16:06:45.312Z,102561.53
2019-03-23T16:11:49.307Z,102566.85
2019-03-23T16:16:53.251Z,102573.59
2019-03-23T16:21:57.253Z,102579.24
2019-03-23T16:27:01.531Z,102582.58
2019-03-23T16:32:04.954Z,102592.66
2019-03-23T16:37:08.796Z,102593.20
2019-03-23T16:42:12.708Z,102577.98
2019-03-23T16:47:16.949Z,102597.42
2019-03-23T16:52:20.867Z,102601.72
2019-03-23T16:57:24.977Z,102615.66
2019-03-23T17:02:28.827Z,102605.11
2019-03-23T17:07:33.062Z,102616.81
2019-03-23T17:12:36.567Z,102609.20
2019-03-23T17:17:40.192Z,102614.39
2019-03-23T17:22:44.118Z,102616.69
2019-03-23T17:27:48.253Z,102624.34
2019-03-23T17:32:52.399Z,102623.78
2019-03-23T17:37:56.304Z,102631.16
2019-03-23T17:43:05.959Z,102638.28
2019-03-23T17:48:07.443Z,102640.91
2019-03-23T17:53:11.776Z,102647.14
2019-03-23T17:58:20.415Z,102656.37
2019-03-23T18:03:27.224Z,102651.66
2019-03-23T18:08:34.315Z,102651.27
2019-03-23T18:13:40.676Z,102663.01
2019-03-23T18:18:44.634Z,102667.78
2019-03-23T18:23:48.494Z,102663.70
2019-03-23T18:28:52.071Z,102663.17
2019-03-23T18:34:03.990Z,102667.91
2019-03-23T18:39:14.399Z,102677.41
2019-03-23T18:44:18.295Z,102674.94
2019-03-23T18:49:21.809Z,102683.22
2019-03-23T18:54:25.595Z,102696.28
2019-03-23T18:59:29.652Z,102700.69
2019-03-23T19:04:36.677Z,102716.82
2019-03-23T19:09:41.924Z,102710.39
2019-03-23T19:14:46.343Z,102714.98
2019-03-23T19:19:50.324Z,102723.20
2019-03-23T19:24:59.329Z,102711.66
2019-03-23T19:30:06.846Z,102710.64
2019-03-23T19:35:11.063Z,102725.62
2019-03-23T19:40:20.439Z,102719.45
2019-03-23T19:45:30.314Z,102724.63
2019-03-23T19:50:36.195Z,102731.17
2019-03-23T19:55:41.509Z,102729.90
2019-03-23T20:00:57.412Z,102738.95
2019-03-23T20:06:06.000Z,102741.84
2019-03-23T20:11:14.112Z,102747.52
2019-03-23T20:16:20.292Z,102749.00
2019-03-23T20:21:26.352Z,102748.98
2019-03-23T20:26:30.601Z,102741.83
2019-03-23T20:31:35.808Z,102746.88
2019-03-23T20:36:39.990Z,102756.89
2019-03-23T20:41:44.608Z,102754.76
2019-03-23T20:46:51.925Z,102749.69
2019-03-23T20:51:58.265Z,102741.27
2019-03-23T20:57:02.749Z,102744.28
2019-03-23T21:02:07.672Z,102754.20
2019-03-23T21:07:11.750Z,102758.21
2019-03-23T21:12:15.947Z,102761.80
2019-03-23T21:17:21.504Z,102759.72
2019-03-23T21:22:25.998Z,102763.17
2019-03-23T21:27:30.321Z,102773.13
2019-03-23T21:32:34.088Z,102764.55
2019-03-23T21:37:37.256Z,102754.53
2019-03-23T21:42:41.803Z,102757.27
2019-03-23T21:47:46.020Z,102763.67
2019-03-23T21:52:49.962Z,102755.50
2019-03-23T21:57:56.894Z,102759.63
2019-03-23T22:03:01.375Z,102754.09
2019-03-23T22:08:05.300Z,102757.24
2019-03-23T22:13:09.589Z,102752.79
2019-03-23T22:18:14.488Z,102755.70
2019-03-23T22:23:18.409Z,102754.98
2019-03-23T22:28:22.252Z,102754.16
2019-03-23T22:33:26.088Z,102755.12
2019-03-23T22:38:29.958Z,102750.00
2019-03-23T22:43:33.168Z,102751.53
2019-03-23T22:48:37.034Z,102749.50
2019-03-23T22:53:40.743Z,102742.28
2019-03-23T22:58:44.638Z,102734.92
2019-03-23T23:03:50.244Z,102728.42
2019-03-23T23:08:54.485Z,102728.27
2019-03-23T23:13:58.306Z,102728.64
2019-03-23T23:19:01.797Z,102720.73
2019-03-23T23:24:05.751Z,102710.54
2019-03-23T23:29:10.541Z,102719.58
2019-03-23T23:34:13.657Z,102719.41
2019-03-23T23:39:17.207Z,102721.98
2019-03-23T23:44:20.828Z,102713.31
2019-03-23T23:49:24.903Z,102719.13
2019-03-23T23:54:29.243Z,102707.87
2019-03-23T23:59:33.436Z,102710.23
